Time;durP1;ratioP1;P1;durP2;ratioP2;P2;SDS_P1;SDS_P2;PMS_P1;PMS_P2;Temp;Humidity;BMP_temperature;BMP_pressure;BME280_temperature;BME280_humidity;BME280_pressure;Samples;Min_cycle;Max_cycle;Signal;HPM_P1;HPM_P2
2023/10/31 00:01:02;;;;;;;0.70;0.70;;;19.20;77.50;;;;;;5128544;27;45959;-71
2023/10/31 00:03:31;;;;;;;0.70;0.70;;;19.30;77.00;;;;;;5130258;27;43925;-72
2023/10/31 00:06:00;;;;;;;0.60;0.60;;;19.40;76.80;;;;;;5125954;27;43396;-70
2023/10/31 00:08:28;;;;;;;0.63;0.63;;;19.40;76.60;;;;;;5136968;27;43405;-69
2023/10/31 00:10:56;;;;;;;0.67;0.67;;;19.30;76.60;;;;;;5138029;27;43619;-69
2023/10/31 00:13:24;;;;;;;0.60;0.60;;;19.20;76.70;;;;;;5138739;27;43420;-69
2023/10/31 00:15:52;;;;;;;0.60;0.60;;;19.20;77.00;;;;;;5136699;27;43441;-69
2023/10/31 00:18:20;;;;;;;0.67;0.67;;;19.10;77.50;;;;;;5136085;27;43324;-69
2023/10/31 00:20:49;;;;;;;0.60;0.60;;;19.10;77.60;;;;;;5137136;27;43622;-69
2023/10/31 00:23:17;;;;;;;0.60;0.60;;;19.10;77.50;;;;;;5137509;27;43445;-69
2023/10/31 00:25:45;;;;;;;0.70;0.70;;;19.00;77.50;;;;;;5136387;27;43928;-69
2023/10/31 00:28:13;;;;;;;0.70;0.70;;;19.00;77.70;;;;;;5137859;27;43409;-69
2023/10/31 00:30:41;;;;;;;0.70;0.70;;;18.90;77.90;;;;;;5134498;27;45778;-70
2023/10/31 00:33:09;;;;;;;0.73;0.73;;;18.90;78.10;;;;;;5132247;27;44146;-69
2023/10/31 00:35:37;;;;;;;0.80;0.80;;;18.90;77.90;;;;;;5136518;27;43377;-69
2023/10/31 00:38:07;;;;;;;0.80;0.80;;;19.00;78.00;;;;;;5131906;27;43383;-68
2023/10/31 00:40:35;;;;;;;0.63;0.63;;;18.90;77.90;;;;;;5127550;27;45851;-67
2023/10/31 00:43:03;;;;;;;0.80;0.80;;;18.90;78.70;;;;;;5130347;27;43890;-68
2023/10/31 00:45:31;;;;;;;0.70;0.70;;;18.90;78.50;;;;;;5129640;27;43413;-67
2023/10/31 00:47:59;;;;;;;0.77;0.77;;;19.00;78.40;;;;;;5126803;27;43629;-68
2023/10/31 00:50:27;;;;;;;0.73;0.73;;;19.10;78.10;;;;;;5130600;27;43672;-67
2023/10/31 00:52:55;;;;;;;0.80;0.80;;;19.20;77.40;;;;;;5128943;27;44732;-67
2023/10/31 00:55:25;;;;;;;0.70;0.70;;;19.30;76.80;;;;;;5128884;27;43969;-67
2023/10/31 00:57:53;;;;;;;0.83;0.83;;;19.40;76.60;;;;;;5124258;27;43935;-68
2023/10/31 01:00:21;;;;;;;0.60;0.60;;;19.40;76.60;;;;;;5128741;27;43970;-68
2023/10/31 01:02:49;;;;;;;0.70;0.70;;;19.30;76.70;;;;;;5127358;27;43390;-67
2023/10/31 01:05:17;;;;;;;0.70;0.70;;;19.20;76.80;;;;;;5130613;27;43371;-67
2023/10/31 01:07:45;;;;;;;0.60;0.60;;;19.20;77.10;;;;;;5129081;27;43580;-67
2023/10/31 01:10:13;;;;;;;0.77;0.60;;;19.10;77.60;;;;;;5128832;27;46092;-67
2023/10/31 01:12:43;;;;;;;0.70;0.70;;;19.10;77.50;;;;;;5129951;27;44022;-68
2023/10/31 01:15:11;;;;;;;0.63;0.63;;;19.10;77.50;;;;;;5129570;27;43404;-68
2023/10/31 01:17:39;;;;;;;0.60;0.60;;;19.00;77.40;;;;;;5130669;27;43444;-68
2023/10/31 01:20:09;;;;;;;0.63;0.63;;;19.00;77.60;;;;;;5129853;27;43795;-70
2023/10/31 01:22:37;;;;;;;0.50;0.50;;;18.90;77.90;;;;;;5130146;27;43401;-68
2023/10/31 01:25:06;;;;;;;0.67;0.67;;;18.90;77.90;;;;;;5128603;27;43423;-68
2023/10/31 01:27:34;;;;;;;0.60;0.60;;;18.90;77.80;;;;;;5129115;27;43799;-68
2023/10/31 01:30:04;;;;;;;0.50;0.50;;;18.90;77.80;;;;;;5127992;27;45753;-69
2023/10/31 01:32:32;;;;;;;0.50;0.50;;;18.90;77.90;;;;;;5127342;27;44719;-68
2023/10/31 01:35:00;;;;;;;0.70;0.70;;;18.90;78.00;;;;;;5126655;27;43382;-68
2023/10/31 01:37:28;;;;;;;0.70;0.70;;;18.90;79.20;;;;;;5128821;27;43910;-68
2023/10/31 01:39:56;;;;;;;0.50;0.50;;;18.90;78.20;;;;;;5121579;27;45939;-68
2023/10/31 01:42:24;;;;;;;0.50;0.50;;;19.10;77.90;;;;;;5128228;27;44814;-67
2023/10/31 01:44:52;;;;;;;0.50;0.50;;;19.20;77.40;;;;;;5124010;27;43380;-68
2023/10/31 01:47:23;;;;;;;0.70;0.70;;;19.30;76.90;;;;;;5131181;27;43457;-70
2023/10/31 01:49:51;;;;;;;0.60;0.60;;;19.30;76.70;;;;;;5134150;27;45686;-70
2023/10/31 01:52:19;;;;;;;0.63;0.63;;;19.30;76.80;;;;;;5128547;27;44717;-70
2023/10/31 01:54:47;;;;;;;0.40;0.40;;;19.20;76.80;;;;;;5129003;27;43433;-70
2023/10/31 01:57:15;;;;;;;0.50;0.50;;;19.20;77.00;;;;;;5127834;27;43469;-70
2023/10/31 01:59:44;;;;;;;0.70;0.70;;;19.10;77.30;;;;;;5128960;27;45505;-70
2023/10/31 02:02:12;;;;;;;0.47;0.47;;;19.10;77.80;;;;;;5126946;27;45232;-70
2023/10/31 02:04:41;;;;;;;0.63;0.63;;;19.00;77.60;;;;;;5133637;27;43452;-70
2023/10/31 02:07:10;;;;;;;0.50;0.50;;;19.00;77.60;;;;;;5135098;27;43447;-70
2023/10/31 02:09:39;;;;;;;0.60;0.60;;;19.00;77.60;;;;;;5137012;27;43651;-70
2023/10/31 02:12:07;;;;;;;0.60;0.60;;;18.90;77.70;;;;;;5127527;27;44824;-70
2023/10/31 02:14:35;;;;;;;0.53;0.53;;;18.90;78.10;;;;;;5139714;27;43380;-70
2023/10/31 02:17:04;;;;;;;0.70;0.70;;;18.90;78.00;;;;;;5137165;27;43546;-69
2023/10/31 02:19:32;;;;;;;0.60;0.60;;;18.90;77.80;;;;;;5138270;27;45760;-70
2023/10/31 02:22:01;;;;;;;0.60;0.60;;;18.90;77.90;;;;;;5139898;27;43767;-70
2023/10/31 02:24:29;;;;;;;1.13;0.70;;;18.90;77.90;;;;;;5138150;27;43394;-70
2023/10/31 02:26:58;;;;;;;0.50;0.50;;;18.90;78.00;;;;;;5133486;27;43415;-71
2023/10/31 02:29:26;;;;;;;0.60;0.60;;;18.90;78.50;;;;;;5130936;27;45677;-71
2023/10/31 02:31:56;;;;;;;0.57;0.57;;;18.90;78.20;;;;;;5130443;27;43555;-71
2023/10/31 02:34:26;;;;;;;0.60;0.60;;;19.10;77.90;;;;;;5131149;27;43437;-71
2023/10/31 02:36:54;;;;;;;0.53;0.53;;;19.20;77.50;;;;;;5126936;27;43409;-71
2023/10/31 02:39:23;;;;;;;0.67;0.67;;;19.20;77.20;;;;;;5126813;27;46017;-71
2023/10/31 02:41:51;;;;;;;0.70;0.70;;;19.20;77.20;;;;;;5130259;27;44064;-71
2023/10/31 02:44:19;;;;;;;0.40;0.40;;;19.20;77.40;;;;;;5130209;27;43375;-72
2023/10/31 02:46:48;;;;;;;0.60;0.60;;;19.20;77.30;;;;;;5128993;27;43459;-71
2023/10/31 02:49:16;;;;;;;0.50;0.50;;;19.10;77.20;;;;;;5129631;27;46125;-71
2023/10/31 02:51:43;;;;;;;0.70;0.70;;;19.10;77.30;;;;;;5130237;27;44719;-71
2023/10/31 02:54:11;;;;;;;0.53;0.53;;;19.10;77.40;;;;;;5129468;27;43328;-71
2023/10/31 02:56:41;;;;;;;0.60;0.60;;;19.00;77.80;;;;;;5130770;27;43531;-68
2023/10/31 02:59:09;;;;;;;0.40;0.40;;;19.00;77.80;;;;;;5129775;27;45992;-67
2023/10/31 03:01:37;;;;;;;0.53;0.53;;;19.00;77.70;;;;;;5128735;27;44976;-67
2023/10/31 03:04:06;;;;;;;0.70;0.70;;;19.00;77.70;;;;;;5132086;27;43452;-67
2023/10/31 03:06:34;;;;;;;0.50;0.50;;;19.00;77.80;;;;;;5131355;27;43452;-68
2023/10/31 03:09:02;;;;;;;0.50;0.50;;;18.90;77.80;;;;;;5128166;27;45686;-68
2023/10/31 03:11:30;;;;;;;0.60;0.60;;;18.90;78.30;;;;;;5130726;27;45072;-68
2023/10/31 03:13:59;;;;;;;0.50;0.50;;;19.00;78.20;;;;;;5129414;27;43410;-67
2023/10/31 03:16:28;;;;;;;0.63;0.63;;;19.10;77.90;;;;;;5130976;27;43423;-68
2023/10/31 03:18:56;;;;;;;0.70;0.70;;;19.20;77.30;;;;;;5130882;27;46111;-68
2023/10/31 03:21:25;;;;;;;0.60;0.60;;;19.30;77.70;;;;;;5130006;27;43443;-68
2023/10/31 03:23:55;;;;;;;0.60;0.60;;;19.40;76.80;;;;;;5130516;27;43422;-67
2023/10/31 03:26:23;;;;;;;0.53;0.53;;;19.30;76.60;;;;;;5129208;27;43493;-68
2023/10/31 03:28:56;;;;;;;0.50;0.50;;;19.20;76.70;;;;;;5128654;27;46143;-68
2023/10/31 03:31:26;;;;;;;0.50;0.50;;;19.20;76.90;;;;;;5129912;27;44788;-68
2023/10/31 03:33:54;;;;;;;0.50;0.50;;;19.10;77.20;;;;;;5130103;27;44020;-67
2023/10/31 03:36:22;;;;;;;0.60;0.60;;;19.10;77.80;;;;;;5131252;27;43968;-67
2023/10/31 03:38:50;;;;;;;0.50;0.50;;;19.00;77.50;;;;;;5129754;27;46209;-68
2023/10/31 03:41:18;;;;;;;0.50;0.50;;;19.00;77.50;;;;;;5129187;27;44933;-67
2023/10/31 03:43:47;;;;;;;0.40;0.40;;;19.00;77.60;;;;;;5128540;27;43390;-68
2023/10/31 03:46:15;;;;;;;0.50;0.50;;;18.90;77.60;;;;;;5131844;27;43440;-68
2023/10/31 03:48:44;;;;;;;1.10;0.50;;;18.90;78.10;;;;;;5137167;27;43995;-70
2023/10/31 03:51:12;;;;;;;0.40;0.40;;;18.90;77.90;;;;;;5131483;27;43394;-70
2023/10/31 03:53:40;;;;;;;0.50;0.50;;;18.90;77.80;;;;;;5137538;27;43359;-70
2023/10/31 03:56:08;;;;;;;0.63;0.63;;;18.90;77.80;;;;;;5136006;27;43367;-70
2023/10/31 03:58:36;;;;;;;0.40;0.40;;;18.90;77.90;;;;;;5134636;27;45857;-70
2023/10/31 04:01:04;;;;;;;0.50;0.50;;;18.90;78.20;;;;;;5137513;27;44700;-70
2023/10/31 04:03:32;;;;;;;0.60;0.60;;;18.90;78.30;;;;;;5133499;27;43363;-70
2023/10/31 04:06:02;;;;;;;0.50;0.50;;;19.00;78.00;;;;;;5135685;27;43461;-70
2023/10/31 04:08:30;;;;;;;0.50;0.50;;;19.10;77.60;;;;;;5135683;27;45670;-70
2023/10/31 04:10:58;;;;;;;0.50;0.50;;;19.30;77.00;;;;;;5133887;27;44748;-70
2023/10/31 04:13:26;;;;;;;0.60;0.60;;;19.30;76.70;;;;;;5136454;27;44119;-70
2023/10/31 04:15:54;;;;;;;0.50;0.50;;;19.30;76.60;;;;;;5139228;27;43449;-70
2023/10/31 04:18:22;;;;;;;0.57;0.57;;;19.20;76.60;;;;;;5135289;27;43748;-70
2023/10/31 04:20:50;;;;;;;0.50;0.50;;;19.20;76.90;;;;;;5137721;27;43507;-70
2023/10/31 04:23:19;;;;;;;0.57;0.57;;;19.10;77.10;;;;;;5136250;27;43379;-70
2023/10/31 04:25:47;;;;;;;0.57;0.57;;;19.10;77.70;;;;;;5137251;27;44037;-70
2023/10/31 04:28:15;;;;;;;0.30;0.30;;;19.10;77.70;;;;;;5135311;27;44048;-70
2023/10/31 04:30:43;;;;;;;0.57;0.40;;;19.00;77.40;;;;;;5135227;27;44917;-70
2023/10/31 04:33:11;;;;;;;0.30;0.30;;;19.00;77.50;;;;;;5130242;27;43366;-70
2023/10/31 04:35:39;;;;;;;0.33;0.33;;;19.00;77.60;;;;;;5137339;27;43345;-70
2023/10/31 04:38:07;;;;;;;0.50;0.50;;;18.90;78.60;;;;;;5134901;27;46114;-70
2023/10/31 04:40:37;;;;;;;0.50;0.50;;;18.90;78.10;;;;;;5138036;27;43424;-70
2023/10/31 04:43:05;;;;;;;0.60;0.60;;;19.00;78.50;;;;;;5138356;27;44138;-70
2023/10/31 04:45:33;;;;;;;0.60;0.60;;;19.10;77.50;;;;;;5133796;27;43560;-70
2023/10/31 04:48:01;;;;;;;0.50;0.50;;;19.10;77.30;;;;;;5134899;27;44039;-70
2023/10/31 04:50:29;;;;;;;0.30;0.30;;;19.10;77.30;;;;;;5136723;27;43488;-70
2023/10/31 04:52:57;;;;;;;0.40;0.40;;;19.10;77.60;;;;;;5134898;27;43403;-70
2023/10/31 04:55:25;;;;;;;0.63;0.63;;;19.10;77.50;;;;;;5138212;27;43999;-70
2023/10/31 04:57:54;;;;;;;0.50;0.50;;;19.10;77.40;;;;;;5131906;27;43811;-72
2023/10/31 05:00:22;;;;;;;0.40;0.40;;;19.00;77.40;;;;;;5127060;27;43844;-72
2023/10/31 05:02:50;;;;;;;0.60;0.60;;;19.00;77.40;;;;;;5128052;27;43820;-72
2023/10/31 05:05:19;;;;;;;0.50;0.50;;;18.90;77.80;;;;;;5130068;27;43857;-72
2023/10/31 05:07:47;;;;;;;0.40;0.40;;;19.00;77.90;;;;;;5129623;27;43574;-71
2023/10/31 05:10:15;;;;;;;0.40;0.40;;;19.10;77.50;;;;;;5129296;27;43463;-72
2023/10/31 05:12:43;;;;;;;0.47;0.47;;;19.10;77.20;;;;;;5129875;27;43354;-72
2023/10/31 05:15:13;;;;;;;0.40;0.40;;;19.10;77.00;;;;;;5127532;27;43391;-71
2023/10/31 05:17:41;;;;;;;0.53;0.53;;;19.10;77.20;;;;;;5129592;27;43733;-73
2023/10/31 05:20:10;;;;;;;0.70;0.70;;;19.10;77.50;;;;;;5128172;27;43470;-72
2023/10/31 05:22:38;;;;;;;0.50;0.50;;;19.10;77.40;;;;;;5128700;27;43427;-72
2023/10/31 05:25:06;;;;;;;0.60;0.60;;;19.10;77.20;;;;;;5127557;27;43355;-72
2023/10/31 05:27:34;;;;;;;0.47;0.47;;;19.10;77.30;;;;;;5153664;27;45698;-68
2023/10/31 05:30:02;;;;;;;2.10;1.20;;;19.00;77.40;;;;;;5129001;27;43314;-68
2023/10/31 05:32:32;;;;;;;1.17;0.90;;;18.90;77.80;;;;;;5129820;27;43593;-68
2023/10/31 05:35:00;;;;;;;1.00;1.00;;;19.00;77.90;;;;;;5129758;27;43482;-68
2023/10/31 05:37:28;;;;;;;0.90;0.90;;;18.90;77.50;;;;;;5128907;27;43993;-68
2023/10/31 05:39:56;;;;;;;0.70;0.70;;;18.90;77.60;;;;;;5128973;27;43464;-68
2023/10/31 05:42:25;;;;;;;1.07;1.07;;;18.90;77.70;;;;;;5129295;27;43411;-68
2023/10/31 05:44:53;;;;;;;1.63;1.57;;;18.90;77.90;;;;;;5131556;27;43451;-68
2023/10/31 05:47:21;;;;;;;2.13;1.50;;;18.90;78.20;;;;;;5132620;27;43619;-68
2023/10/31 05:49:51;;;;;;;1.27;1.27;;;19.00;78.00;;;;;;5133660;27;44053;-68
2023/10/31 05:52:19;;;;;;;1.70;1.40;;;19.10;77.50;;;;;;5133063;27;43397;-68
2023/10/31 05:54:47;;;;;;;1.33;1.30;;;19.20;77.20;;;;;;5134077;27;43379;-68
2023/10/31 05:57:15;;;;;;;1.67;1.57;;;19.20;76.90;;;;;;5130927;27;44709;-68
2023/10/31 05:59:43;;;;;;;1.70;1.47;;;19.20;77.10;;;;;;5133157;27;43495;-68
2023/10/31 06:02:11;;;;;;;1.80;1.70;;;19.10;77.30;;;;;;5133628;27;43303;-68
2023/10/31 06:04:39;;;;;;;1.67;1.57;;;19.20;77.20;;;;;;5133454;27;43459;-69
2023/10/31 06:07:12;;;;;;;1.20;1.20;;;19.10;77.10;;;;;;5131257;27;45441;-70
2023/10/31 06:09:40;;;;;;;2.50;1.77;;;19.10;77.20;;;;;;5128681;27;43445;-71
2023/10/31 06:12:08;;;;;;;1.73;1.63;;;19.00;77.30;;;;;;5131846;27;43919;-71
2023/10/31 06:14:37;;;;;;;2.20;2.00;;;19.00;77.80;;;;;;5152053;27;43591;-71
2023/10/31 06:17:05;;;;;;;1.53;1.43;;;19.00;77.70;;;;;;5128052;27;43607;-71
2023/10/31 06:19:35;;;;;;;1.83;1.50;;;19.00;77.60;;;;;;5131766;27;44084;-70
2023/10/31 06:22:05;;;;;;;2.10;1.57;;;18.90;77.50;;;;;;5126109;27;43361;-71
2023/10/31 06:24:34;;;;;;;1.80;1.70;;;18.90;77.60;;;;;;5128184;27;43581;-71
2023/10/31 06:27:05;;;;;;;1.60;1.50;;;18.90;78.00;;;;;;5129818;27;43997;-71
2023/10/31 06:29:33;;;;;;;1.60;1.50;;;18.90;78.00;;;;;;5131966;27;43471;-71
2023/10/31 06:32:21;;;;;;;1.57;1.47;;;19.10;77.70;;;;;;5126146;27;43406;-71
2023/10/31 06:34:49;;;;;;;1.93;1.50;;;19.10;77.30;;;;;;5131833;27;43512;-71
2023/10/31 06:37:17;;;;;;;1.63;1.50;;;19.20;77.10;;;;;;5132282;27;43958;-72
2023/10/31 06:39:46;;;;;;;1.67;1.57;;;19.10;77.10;;;;;;5127163;27;44033;-72
2023/10/31 06:42:14;;;;;;;1.50;1.40;;;19.10;77.30;;;;;;5129813;27;43319;-72
2023/10/31 06:44:42;;;;;;;1.63;1.53;;;19.10;77.20;;;;;;5132068;27;43457;-71
2023/10/31 06:47:10;;;;;;;2.37;1.40;;;19.10;77.10;;;;;;5129667;27;45376;-71
2023/10/31 06:49:38;;;;;;;1.47;1.47;;;19.10;77.20;;;;;;5131239;27;43422;-72
2023/10/31 06:52:06;;;;;;;1.80;1.50;;;19.00;77.30;;;;;;5129343;27;43415;-72
2023/10/31 06:54:35;;;;;;;1.57;1.47;;;19.00;77.70;;;;;;5129968;27;43477;-72
2023/10/31 06:57:05;;;;;;;2.10;1.83;;;19.00;77.80;;;;;;5128911;27;43993;-72
2023/10/31 06:59:33;;;;;;;1.60;1.50;;;19.00;77.70;;;;;;5131710;27;43548;-72
2023/10/31 07:02:01;;;;;;;1.70;1.60;;;18.90;77.50;;;;;;5131971;27;43311;-72
2023/10/31 07:04:29;;;;;;;1.87;1.77;;;18.90;77.60;;;;;;5131698;27;43872;-71
2023/10/31 07:06:57;;;;;;;1.40;1.40;;;18.90;77.70;;;;;;5128011;27;45753;-72
2023/10/31 07:09:26;;;;;;;1.87;1.70;;;18.90;78.20;;;;;;5130073;27;44736;-72
2023/10/31 07:11:54;;;;;;;2.77;1.67;;;19.00;78.10;;;;;;5131532;27;43475;-71
2023/10/31 07:14:23;;;;;;;1.47;1.37;;;19.10;77.60;;;;;;5130896;27;43938;-72
2023/10/31 07:16:51;;;;;;;1.60;1.50;;;19.20;77.10;;;;;;5130478;27;43665;-72
2023/10/31 07:19:19;;;;;;;1.33;1.20;;;19.30;76.80;;;;;;5130223;27;43416;-72
2023/10/31 07:21:47;;;;;;;1.70;1.60;;;19.30;76.70;;;;;;5129231;27;44134;-72
2023/10/31 07:24:15;;;;;;;1.60;1.50;;;19.20;76.50;;;;;;5128232;27;43465;-72
2023/10/31 07:26:43;;;;;;;1.67;1.53;;;19.20;76.70;;;;;;5124802;27;44015;-72
2023/10/31 07:29:11;;;;;;;1.80;1.70;;;19.10;76.90;;;;;;5127264;27;43299;-72
2023/10/31 07:31:41;;;;;;;1.37;1.37;;;19.00;77.40;;;;;;5131253;27;43411;-71
2023/10/31 07:34:11;;;;;;;1.33;1.33;;;19.00;77.60;;;;;;5128798;27;43464;-72
2023/10/31 07:36:39;;;;;;;1.50;1.50;;;19.00;77.40;;;;;;5130008;27;43631;-72
2023/10/31 07:39:07;;;;;;;1.83;1.73;;;19.00;77.50;;;;;;5130530;27;43490;-71
2023/10/31 07:41:35;;;;;;;1.50;1.50;;;19.00;77.50;;;;;;5131175;27;43418;-72
2023/10/31 07:44:03;;;;;;;1.50;1.47;;;18.90;77.60;;;;;;5131363;27;43749;-71
2023/10/31 07:46:31;;;;;;;1.53;1.43;;;18.90;78.00;;;;;;5130880;27;43922;-72
2023/10/31 07:49:01;;;;;;;1.50;1.40;;;19.00;77.90;;;;;;5130145;27;43399;-72
2023/10/31 07:51:29;;;;;;;1.40;1.40;;;19.10;77.50;;;;;;5130685;27;43470;-72
2023/10/31 07:53:58;;;;;;;1.60;1.50;;;19.20;77.20;;;;;;5131323;27;43427;-72
2023/10/31 07:56:26;;;;;;;1.50;1.50;;;19.20;77.00;;;;;;5124158;27;46110;-72
2023/10/31 07:58:54;;;;;;;1.20;1.20;;;19.10;77.20;;;;;;5127692;27;44908;-72
2023/10/31 08:01:23;;;;;;;1.70;1.60;;;19.10;77.30;;;;;;5130796;27;43977;-72
2023/10/31 08:03:51;;;;;;;1.70;1.60;;;19.10;77.20;;;;;;5126333;27;43395;-71
2023/10/31 08:06:21;;;;;;;1.43;1.33;;;19.10;77.10;;;;;;5130178;27;43862;-72
2023/10/31 08:08:49;;;;;;;1.80;1.70;;;19.10;77.20;;;;;;5121706;27;43406;-72
2023/10/31 08:11:16;;;;;;;1.37;1.37;;;19.00;77.30;;;;;;5124059;27;43361;-72
2023/10/31 08:13:44;;;;;;;1.50;1.40;;;19.00;77.80;;;;;;5127442;27;43405;-72
2023/10/31 08:16:18;;;;;;;1.80;1.70;;;19.00;77.70;;;;;;5129080;27;44569;-72
2023/10/31 08:18:46;;;;;;;1.40;1.40;;;19.00;77.50;;;;;;5122421;27;44667;-72
2023/10/31 08:21:14;;;;;;;1.90;1.80;;;18.90;77.50;;;;;;5127386;27;43369;-71
2023/10/31 08:23:46;;;;;;;1.80;1.70;;;18.90;77.50;;;;;;5131069;27;43421;-72
2023/10/31 08:26:14;;;;;;;1.40;1.40;;;18.90;77.80;;;;;;5129915;27;43621;-72
2023/10/31 08:28:42;;;;;;;1.20;1.20;;;18.90;78.10;;;;;;5129885;27;44026;-70
2023/10/31 08:31:10;;;;;;;1.70;1.60;;;19.00;78.00;;;;;;5127574;27;43448;-70
2023/10/31 08:33:38;;;;;;;1.40;1.40;;;19.10;77.50;;;;;;5128780;27;43495;-71
2023/10/31 08:36:07;;;;;;;1.50;1.47;;;19.10;77.20;;;;;;5129899;27;43958;-70
2023/10/31 08:38:35;;;;;;;1.70;1.63;;;19.10;77.10;;;;;;5128619;27;43417;-70
2023/10/31 08:41:05;;;;;;;1.17;1.17;;;19.10;77.40;;;;;;5128230;27;43437;-71
2023/10/31 08:43:33;;;;;;;1.30;1.30;;;19.10;77.30;;;;;;5130311;27;43916;-71
2023/10/31 08:46:01;;;;;;;1.87;1.77;;;19.10;77.20;;;;;;5129619;27;43613;-71
2023/10/31 08:48:29;;;;;;;1.60;1.50;;;19.10;77.20;;;;;;5129516;27;43560;-71
2023/10/31 08:50:57;;;;;;;1.43;1.43;;;19.00;77.20;;;;;;5129575;27;43369;-72
2023/10/31 08:53:25;;;;;;;1.40;1.40;;;19.00;77.40;;;;;;5129596;27;43534;-71
2023/10/31 08:55:53;;;;;;;1.27;1.27;;;19.00;77.80;;;;;;5129074;27;43922;-71
2023/10/31 08:58:22;;;;;;;1.40;1.40;;;19.00;77.60;;;;;;5126202;27;44729;-68
2023/10/31 09:00:50;;;;;;;1.23;1.23;;;18.90;77.50;;;;;;5127006;27;43480;-68
2023/10/31 09:03:18;;;;;;;1.30;1.30;;;18.90;77.50;;;;;;5130440;27;43385;-68
2023/10/31 09:05:47;;;;;;;1.97;1.80;;;18.90;77.60;;;;;;5128459;27;45315;-68
2023/10/31 09:08:15;;;;;;;1.33;1.33;;;18.90;78.00;;;;;;5128626;27;44787;-68
2023/10/31 09:10:45;;;;;;;1.40;1.37;;;18.90;78.00;;;;;;5130325;27;43401;-68
2023/10/31 09:13:14;;;;;;;1.30;1.30;;;19.00;77.70;;;;;;5127590;27;43528;-68
2023/10/31 09:15:45;;;;;;;1.57;1.47;;;19.20;78.00;;;;;;5129828;27;43921;-68
2023/10/31 09:18:13;;;;;;;1.67;1.57;;;19.30;76.70;;;;;;5130109;27;43345;-68
2023/10/31 09:20:42;;;;;;;1.40;1.40;;;19.30;76.50;;;;;;5128665;27;43484;-68
2023/10/31 09:23:10;;;;;;;1.20;1.20;;;19.30;76.40;;;;;;5130746;27;43439;-68
2023/10/31 09:25:38;;;;;;;1.30;1.30;;;19.20;76.40;;;;;;5129597;27;43860;-69
2023/10/31 09:28:06;;;;;;;1.50;1.50;;;19.20;76.60;;;;;;5126005;27;43473;-68
2023/10/31 09:30:34;;;;;;;1.27;1.27;;;19.10;76.90;;;;;;5128259;27;43502;-68
2023/10/31 09:33:03;;;;;;;1.33;1.33;;;19.10;77.40;;;;;;5129739;27;43404;-68
2023/10/31 09:35:31;;;;;;;1.30;1.30;;;19.10;77.40;;;;;;5129219;27;43611;-68
2023/10/31 09:38:00;;;;;;;1.30;1.30;;;19.00;77.20;;;;;;5132617;27;43509;-70
2023/10/31 09:40:28;;;;;;;1.40;1.40;;;19.00;77.30;;;;;;5136299;27;43451;-70
2023/10/31 09:42:56;;;;;;;1.20;1.20;;;18.90;77.40;;;;;;5136354;27;44062;-70
2023/10/31 09:45:24;;;;;;;1.50;1.50;;;19.00;77.90;;;;;;5136127;27;43921;-70
2023/10/31 09:47:52;;;;;;;1.20;1.20;;;18.90;77.80;;;;;;5135677;27;43369;-70
2023/10/31 09:50:22;;;;;;;1.30;1.30;;;18.90;77.60;;;;;;5136488;27;43369;-70
2023/10/31 09:52:50;;;;;;;1.47;1.47;;;18.90;77.60;;;;;;5133842;27;43920;-70
2023/10/31 09:55:18;;;;;;;1.47;1.37;;;18.90;77.70;;;;;;5135065;27;43836;-70
2023/10/31 09:57:46;;;;;;;1.27;1.27;;;18.90;77.80;;;;;;5128976;27;43742;-70
2023/10/31 10:00:14;;;;;;;1.40;1.40;;;18.90;78.20;;;;;;5135920;27;43410;-70
2023/10/31 10:02:42;;;;;;;1.20;1.20;;;18.90;77.90;;;;;;5134123;27;43418;-70
2023/10/31 10:05:11;;;;;;;1.37;1.30;;;19.10;77.60;;;;;;5132165;27;43689;-70
2023/10/31 10:07:42;;;;;;;1.53;1.43;;;19.10;77.20;;;;;;5132451;27;43479;-70
2023/10/31 10:10:14;;;;;;;1.40;1.40;;;19.20;77.00;;;;;;5122289;27;43401;-70
2023/10/31 10:12:43;;;;;;;1.10;1.10;;;19.10;77.00;;;;;;5127674;27;43808;-71
2023/10/31 10:15:11;;;;;;;1.70;1.60;;;19.10;77.20;;;;;;5128427;27;43893;-70
2023/10/31 10:17:40;;;;;;;1.10;1.10;;;19.10;77.20;;;;;;5128612;27;43434;-71
2023/10/31 10:20:09;;;;;;;1.30;1.30;;;19.10;77.10;;;;;;5128487;27;43389;-71
2023/10/31 10:22:39;;;;;;;1.37;1.37;;;19.10;77.20;;;;;;5128877;27;43357;-70
2023/10/31 10:25:09;;;;;;;1.30;1.30;;;19.00;77.20;;;;;;5118421;27;43853;-70
2023/10/31 10:27:37;;;;;;;1.40;1.30;;;19.00;77.70;;;;;;5128081;27;43449;-71
2023/10/31 10:30:06;;;;;;;1.20;1.20;;;19.00;77.70;;;;;;5128447;27;43489;-71
2023/10/31 10:32:34;;;;;;;1.33;1.33;;;18.90;77.50;;;;;;5131568;27;43501;-71
2023/10/31 10:35:09;;;;;;;1.40;1.40;;;18.90;77.50;;;;;;5131224;27;43670;-70
2023/10/31 10:37:39;;;;;;;1.10;1.10;;;18.90;77.60;;;;;;5125401;27;43491;-70
2023/10/31 10:40:09;;;;;;;1.23;1.23;;;18.90;77.80;;;;;;5119442;27;43984;-71
2023/10/31 10:42:41;;;;;;;1.20;1.20;;;18.90;78.00;;;;;;5127241;27;43448;-71
2023/10/31 10:45:11;;;;;;;1.03;1.03;;;18.90;77.90;;;;;;5129991;27;43619;-71
2023/10/31 10:47:39;;;;;;;1.13;1.13;;;18.90;77.80;;;;;;5126367;27;43436;-71
2023/10/31 10:50:08;;;;;;;1.10;1.10;;;18.90;77.70;;;;;;5127721;27;43631;-72
2023/10/31 10:52:43;;;;;;;1.30;1.30;;;18.90;77.90;;;;;;5121610;27;43446;-72
2023/10/31 10:55:16;;;;;;;1.20;1.20;;;18.80;78.10;;;;;;5131371;27;43586;-72
2023/10/31 10:57:49;;;;;;;1.70;1.60;;;18.90;78.20;;;;;;5128196;27;43350;-72
2023/10/31 11:00:17;;;;;;;1.20;1.20;;;19.00;77.80;;;;;;5131799;27;43422;-72
2023/10/31 11:02:45;;;;;;;1.33;1.30;;;19.10;77.40;;;;;;5132071;27;44046;-71
2023/10/31 11:05:15;;;;;;;1.07;1.07;;;19.30;76.80;;;;;;5130727;27;43598;-72
2023/10/31 11:07:44;;;;;;;1.37;1.37;;;19.30;76.50;;;;;;5129593;27;43452;-72
2023/10/31 11:10:13;;;;;;;1.23;1.20;;;19.30;76.40;;;;;;5130987;27;43706;-72
2023/10/31 11:12:41;;;;;;;1.20;1.20;;;19.30;76.50;;;;;;5131364;27;43960;-72
2023/10/31 11:15:10;;;;;;;1.20;1.20;;;19.20;76.60;;;;;;5131156;27;43612;-72
2023/10/31 11:17:40;;;;;;;1.20;1.20;;;19.10;76.90;;;;;;5131214;27;44124;-71
2023/10/31 11:20:10;;;;;;;1.30;1.30;;;19.10;77.40;;;;;;5128618;27;43379;-71
2023/10/31 11:22:39;;;;;;;1.27;1.27;;;19.10;77.30;;;;;;5129281;27;43357;-71
2023/10/31 11:25:08;;;;;;;1.30;1.30;;;19.00;77.20;;;;;;5131168;27;43771;-71
2023/10/31 11:27:48;;;;;;;1.20;1.20;;;19.00;77.40;;;;;;5130670;27;43424;-70
2023/10/31 11:30:22;;;;;;;1.30;1.30;;;18.90;77.40;;;;;;5131293;27;43445;-70
2023/10/31 11:32:52;;;;;;;1.00;1.00;;;19.00;77.90;;;;;;5130395;27;43972;-70
2023/10/31 11:35:20;;;;;;;1.10;1.10;;;18.90;77.70;;;;;;5128825;27;45038;-70
2023/10/31 11:37:49;;;;;;;1.00;1.00;;;18.90;77.60;;;;;;5129913;27;43518;-70
2023/10/31 11:40:23;;;;;;;1.10;1.10;;;18.90;77.60;;;;;;5131098;27;43440;-70
2023/10/31 11:42:54;;;;;;;1.10;1.10;;;18.90;77.70;;;;;;5127622;27;43447;-70
2023/10/31 11:45:27;;;;;;;1.10;1.10;;;18.90;78.10;;;;;;5130500;27;44070;-71
2023/10/31 11:47:55;;;;;;;1.03;1.03;;;18.90;78.20;;;;;;5129553;27;43417;-70
2023/10/31 11:50:23;;;;;;;1.20;1.20;;;19.00;77.90;;;;;;5130807;27;43517;-70
2023/10/31 11:53:04;;;;;;;0.80;0.80;;;19.10;77.40;;;;;;5131238;27;43346;-71
2023/10/31 11:55:35;;;;;;;1.23;1.23;;;19.20;77.10;;;;;;5129037;27;43893;-70
2023/10/31 11:58:15;;;;;;;1.20;1.20;;;19.20;76.90;;;;;;5125882;27;43792;-68
2023/10/31 12:00:44;;;;;;;1.00;1.00;;;19.10;77.20;;;;;;5131413;27;43416;-68
2023/10/31 12:03:12;;;;;;;1.00;1.00;;;19.10;77.20;;;;;;5131049;27;43407;-68
2023/10/31 12:05:40;;;;;;;1.00;1.00;;;19.10;77.10;;;;;;5130925;27;43692;-68
2023/10/31 12:08:08;;;;;;;1.13;1.13;;;19.10;77.80;;;;;;5131196;27;44014;-68
2023/10/31 12:10:36;;;;;;;0.97;0.97;;;19.10;77.20;;;;;;5130710;27;43460;-68
2023/10/31 12:13:04;;;;;;;1.20;1.20;;;19.00;77.30;;;;;;5131695;27;43464;-68
2023/10/31 12:15:34;;;;;;;0.90;0.90;;;19.00;77.70;;;;;;5130228;27;43622;-68
2023/10/31 12:18:02;;;;;;;1.07;1.07;;;19.00;77.60;;;;;;5125528;27;43370;-68
2023/10/31 12:20:30;;;;;;;0.97;0.97;;;18.90;77.50;;;;;;5130948;27;43278;-68
2023/10/31 12:23:04;;;;;;;1.30;1.30;;;19.00;77.60;;;;;;5131144;27;43901;-68
2023/10/31 12:25:35;;;;;;;1.10;1.10;;;18.90;77.60;;;;;;5130757;27;43598;-68
2023/10/31 12:28:04;;;;;;;1.10;1.10;;;18.90;77.90;;;;;;5129850;27;43318;-72
2023/10/31 12:30:33;;;;;;;1.10;1.10;;;18.90;78.80;;;;;;5124464;27;43827;-71
2023/10/31 12:33:01;;;;;;;1.20;1.20;;;19.00;77.80;;;;;;5130378;27;43423;-71
2023/10/31 12:35:30;;;;;;;1.00;1.00;;;19.10;77.30;;;;;;5129696;27;44772;-72
2023/10/31 12:37:58;;;;;;;1.47;1.47;;;19.20;76.90;;;;;;5129444;27;44343;-72
2023/10/31 12:40:27;;;;;;;1.00;1.00;;;19.30;76.80;;;;;;5127690;27;43404;-72
2023/10/31 12:42:55;;;;;;;1.07;1.07;;;19.20;76.60;;;;;;5130511;27;43367;-72
2023/10/31 12:45:23;;;;;;;0.93;0.93;;;19.20;76.80;;;;;;5129833;27;43602;-72
2023/10/31 12:48:03;;;;;;;1.20;1.20;;;19.10;76.90;;;;;;5128489;27;44696;-71
2023/10/31 12:50:32;;;;;;;1.00;1.00;;;19.10;77.10;;;;;;5128312;27;43342;-72
2023/10/31 12:53:00;;;;;;;0.90;0.90;;;19.00;77.50;;;;;;5129887;27;43905;-72
2023/10/31 12:55:29;;;;;;;1.03;1.03;;;19.00;77.40;;;;;;5129405;27;43609;-71